Nashville, TN

4:36 PM CDT on April 29, 2017 (GMT -0500)
Nashville International | | Change Station

Elev 597 ft 36.12 °N, 86.68 °W | Updated 43 minutes ago

Mostly Cloudy
Mostly Cloudy
90 °F
Feels Like 92 °F
N
15
Wind Variable Wind from SSW
Gusts 29 mph

Today
High -- | Low -- °F
--% Chance of Precip.
Yesterday
High -- | Low -- °F
Precip. -- in
Pressure 29.94 in
Visibility 10.0 miles
Clouds Mostly Cloudy 6000 ft
Mostly Cloudy 7500 ft
Heat Index 92 °F
Dew Point 65 °F
Humidity 43%
Rainfall 0.00 in
Snow Depth Not available.
5:55 AM 7:32 PM
Waxing Crescent, 16% visible
METAR KBNA 292053Z 20013G25KT 10SM BKN060 BKN075 32/18 A2996 RMK AO2 PK WND 19027/2002 SLP138 T03220183 57009
Pressure 29.94 in
Visibility 10.0 miles
Clouds Mostly Cloudy 6000 ft
Mostly Cloudy 7500 ft
Heat Index 92 °F
Dew Point 65 °F
Humidity 43%
Rainfall 0.00 in
Snow Depth Not available.
5:55 AM 7:32 PM
Waxing Crescent, 16% visible
METAR KBNA 292053Z 20013G25KT 10SM BKN060 BKN075 32/18 A2996 RMK AO2 PK WND 19027/2002 SLP138 T03220183 57009

Get Severe Weather Alerts

Thanks for signing up!

Be on the lookout for a verification email in your inbox.

You'll start receiving the daily forecast at 8 AM.

×

10-Day Weather Forecast

Almanac

Astronomy

Apr. 29, 2017 Rise Set
Actual Time
Civil Twilight
Nautical Twilight
Astronomical Twilight
Moon
Length of Visible Light
Length of Day
Tomorrow will be .
, % of the Moon is Illuminated

Today's Extremes

State Highs State Lows

Community

WunderPhotos

WunderBlog® & News

Nearby

Air Quality

  Air Quality AQ Index Pollutant
Not available.

Snow Depth

Station Depth Elevation

Earthquake Activity

City Distance Mag. Time & Date
Minimum magnitude displayed is 2.5.

Coastal Water Temperatures

Place Temperature

Stations

Nearby Weather Stations

Station Location Temp. Windchill Dew Point Humidity Wind Precip. Elev Updated Type
                   

Watches & Warnings

There are currently no watches in effect.